Details From KTEX - Telluride Rgnl
To KLXV - LAKE CO
Flight Number -
Tags generated
Created
Modified
Stats Distance 107 nm / 197 km
Max Altitude 9,900 ft / 3,018 m
Waypoints 3
Social Downloads 0
Likes 0
Share VATSIM

Download

Looking for another format? Having issues loading an existing format? Contact us
Advertisement - Login to hide

Notes

Basic altitude profile: - Ascent Rate: 2500ft/min - Ascent Speed: 250kts - Cruise Altitude: 35000ft - Cruise Speed: 420kts - Descent Rate: 1500ft/min - Descent Speed: 250kts Options: - Use NATs: yes - Use PACOTS: yes - Use low airways: yes - Use high airways: yes

Route

KTEX WENDT KLXV

ID Type Via Altitude Latitude Longitude Leg Dist Tot Dist Heading (true) Name
O KTEX APT - 0 ft / 0 m 37.95381˚ -107.90874˚ - 0 nm - Telluride Rgnl
WENDT FIX - 9,900 ft / 3,018 m 38.66759˚ -107.00840˚ 60 nm 60 nm 44° / 45° -
O KLXV APT - 0 ft / 0 m 39.21947˚ -106.31644˚ 46 nm 106 nm 44° / 44° LAKE CO

Altitude Profile

Advertisement - Login to hide

KTEX

Details ICAO KTEX (TEX)
Name Telluride Rgnl
Region United States
Timezone America/Denver (UTC-6.0)
Stats Elevation 9,078 ft / 2,767 m (AMSL)
Location 37.953812° -107.908742°
Runways 1
Magnetic Variation 9.376° E

METAR

KTEX 220300Z AUTO 17003KT 10SM SCT100 11/00 A3021 RMK AO2 T01071001

Decode

TAF

TAF KTEX 212328Z 2200/2224 16006KT P6SM VCSH SCT040 BKN060 BKN100 FM220300 13007KT P6SM VCSH SCT045 BKN110 FM220700 13005KT P6SM FEW100 SCT200 FM221500 15012G26KT P6SM FEW060 SCT200

Decode

Departure Runways

ID Width Length Bearing (true) Bearing (mag) Surface Threshold Offset Overrun Length
09 98 ft / 30 m 7,095 ft / 2,163 m 104.96° 95.58° Asphalt 200 ft / 61 m 400 ft / 122 m
27 98 ft / 30 m 7,095 ft / 2,163 m 284.98° 275.60° Asphalt 200 ft / 61 m 400 ft / 122 m

KLXV

Details ICAO KLXV
Name LAKE CO
Region United States
Timezone America/Denver (UTC-6.0)
Stats Elevation 9,927 ft / 3,026 m (AMSL)
Location 39.219467° -106.316445°
Runways 1
Magnetic Variation 8.786° E

METAR

KLXV 220253Z AUTO 17007KT 10SM CLR 07/01 A3025 RMK AO2 SLP124 T00720006 53006

Decode

TAF

Not found

Destination Runways

ID Width Length Bearing (true) Bearing (mag) Surface Threshold Offset Overrun Length
16 75 ft / 23 m 6,411 ft / 1,954 m 170.29° 161.50° Asphalt 0 ft / 0 m 200 ft / 61 m
34 75 ft / 23 m 6,411 ft / 1,954 m 350.30° 341.51° Asphalt 0 ft / 0 m 0 ft / 0 m